Time,TemperatureF,DewpointF,PressureIn,WindDirection,WindDirectionDegrees,WindSpeedMPH,WindSpeedGustMPH,Humidity,HourlyPrecipIn,Conditions,Clouds,dailyrainin,SoftwareType,DateUTC
2013-01-05 00:00:00,27.5,16.6,28.20,NW,315,0.0,0.0,63,0.00,,---,0.00,VWS V14.01,2013-01-05 05:00:00,
2013-01-05 00:03:00,27.7,16.7,28.20,NW,315,0.0,0.0,63,0.00,,---,0.00,VWS V14.01,2013-01-05 05:03:00,
2013-01-05 00:08:00,27.9,16.9,28.20,NW,315,0.0,0.0,63,0.00,,---,0.00,VWS V14.01,2013-01-05 05:08:00,
2013-01-05 00:13:00,27.9,16.9,28.20,WSW,248,0.0,0.0,63,0.00,,---,0.00,VWS V14.01,2013-01-05 05:13:00,
2013-01-05 00:18:00,27.9,16.9,28.20,West,270,0.0,0.0,63,0.00,,---,0.00,VWS V14.01,2013-01-05 05:18:00,
2013-01-05 00:23:00,28.0,17.1,28.20,NNW,338,0.0,0.0,63,0.00,,---,0.00,VWS V14.01,2013-01-05 05:23:00,
2013-01-05 00:28:00,28.0,16.7,28.20,NNW,338,0.0,0.0,62,0.00,,---,0.00,VWS V14.01,2013-01-05 05:28:00,
2013-01-05 00:33:00,27.9,16.5,28.20,NNW,338,0.0,0.0,62,0.00,,---,0.00,VWS V14.01,2013-01-05 05:33:00,
2013-01-05 00:38:00,27.9,16.5,28.20,NNW,338,0.0,0.0,62,0.00,,---,0.00,VWS V14.01,2013-01-05 05:38:00,
2013-01-05 00:44:00,27.9,16.9,28.20,WNW,292,0.9,0.9,63,0.00,,---,0.00,VWS V14.01,2013-01-05 05:44:00,
2013-01-05 00:49:00,27.9,16.9,28.20,SSE,158,0.0,0.0,63,0.00,,---,0.00,VWS V14.01,2013-01-05 05:49:00,
2013-01-05 00:54:00,27.9,16.9,28.20,SSW,202,0.0,0.0,63,0.00,,---,0.00,VWS V14.01,2013-01-05 05:54:00,
2013-01-05 00:59:00,28.4,17.4,28.20,WSW,248,0.0,0.0,63,0.00,,---,0.00,VWS V14.01,2013-01-05 05:59:00,
2013-01-05 01:04:00,28.4,17.4,28.20,ESE,112,0.0,0.0,63,0.00,,---,0.00,VWS V14.01,2013-01-05 06:04:00,
2013-01-05 01:09:00,28.4,17.4,28.20,WSW,248,0.0,0.0,63,0.00,,---,0.00,VWS V14.01,2013-01-05 06:09:00,
2013-01-05 01:14:00,28.6,17.2,28.20,West,270,0.0,0.0,62,0.00,,---,0.00,VWS V14.01,2013-01-05 06:14:00,
2013-01-05 01:19:00,28.6,17.2,28.20,SSE,158,0.0,0.0,62,0.00,,---,0.00,VWS V14.01,2013-01-05 06:19:00,
2013-01-05 01:24:00,28.6,17.2,28.20,South,180,0.0,0.0,62,0.00,,---,0.00,VWS V14.01,2013-01-05 06:24:00,
2013-01-05 01:29:00,28.6,17.2,28.20,South,180,0.0,0.0,62,0.00,,---,0.00,VWS V14.01,2013-01-05 06:29:00,
2013-01-05 01:34:00,28.2,16.9,28.20,South,180,0.0,0.0,62,0.00,,---,0.00,VWS V14.01,2013-01-05 06:34:00,
2013-01-05 01:39:00,28.2,16.9,28.20,WNW,292,0.0,0.0,62,0.00,,---,0.00,VWS V14.01,2013-01-05 06:39:00,
2013-01-05 01:44:00,28.4,17.4,28.20,WNW,292,0.0,0.0,63,0.00,,---,0.00,VWS V14.01,2013-01-05 06:44:00,
2013-01-05 01:49:00,28.6,17.2,28.20,ESE,112,0.0,0.0,62,0.00,,---,0.00,VWS V14.01,2013-01-05 06:49:00,
2013-01-05 01:54:00,28.6,17.2,28.20,NW,315,0.0,0.0,62,0.00,,---,0.00,VWS V14.01,2013-01-05 06:54:00,
2013-01-05 01:59:00,28.8,17.4,28.20,SSE,158,0.0,0.0,62,0.00,,---,0.00,VWS V14.01,2013-01-05 06:59:00,
2013-01-05 02:04:00,28.9,17.6,28.20,WNW,292,0.0,0.0,62,0.00,,---,0.00,VWS V14.01,2013-01-05 07:04:00,
2013-01-05 02:10:00,28.9,17.6,28.20,ENE,68,0.0,1.1,62,0.00,,---,0.00,VWS V14.01,2013-01-05 07:10:00,
2013-01-05 02:15:00,29.1,17.7,28.20,WNW,292,0.0,1.3,62,0.00,,---,0.00,VWS V14.01,2013-01-05 07:15:00,
2013-01-05 02:20:00,29.3,17.9,28.20,NNW,338,0.0,0.0,62,0.00,,---,0.00,VWS V14.01,2013-01-05 07:20:00,
2013-01-05 02:25:00,29.3,17.9,28.20,ESE,112,0.0,0.0,62,0.00,,---,0.00,VWS V14.01,2013-01-05 07:25:00,
2013-01-05 02:30:00,29.3,17.9,28.20,ESE,112,1.1,1.1,62,0.00,,---,0.00,VWS V14.01,2013-01-05 07:30:00,
2013-01-05 02:35:00,29.3,17.9,28.20,NNW,338,0.0,0.0,62,0.00,,---,0.00,VWS V14.01,2013-01-05 07:35:00,
2013-01-05 02:40:00,29.3,17.9,28.20,East,90,0.0,0.0,62,0.00,,---,0.00,VWS V14.01,2013-01-05 07:40:00,
2013-01-05 02:45:00,29.3,17.9,28.20,WNW,292,0.0,0.0,62,0.00,,---,0.00,VWS V14.01,2013-01-05 07:45:00,
2013-01-05 02:50:00,29.3,17.9,28.20,WNW,292,0.0,0.0,62,0.00,,---,0.00,VWS V14.01,2013-01-05 07:50:00,
2013-01-05 02:55:00,28.8,17.4,28.20,West,270,0.0,0.0,62,0.00,,---,0.00,VWS V14.01,2013-01-05 07:55:00,
2013-01-05 03:00:00,28.8,17.4,28.20,WSW,248,0.0,0.0,62,0.00,,---,0.00,VWS V14.01,2013-01-05 08:00:00,
2013-01-05 03:05:00,28.6,17.2,28.20,West,270,0.0,0.0,62,0.00,,---,0.00,VWS V14.01,2013-01-05 08:05:00,
2013-01-05 03:11:00,28.6,17.2,28.20,WNW,292,0.0,0.0,62,0.00,,---,0.00,VWS V14.01,2013-01-05 08:11:00,
2013-01-05 03:16:00,28.4,17.4,28.20,WSW,248,0.0,0.0,63,0.00,,---,0.00,VWS V14.01,2013-01-05 08:16:00,
2013-01-05 03:21:00,28.4,17.4,28.17,ENE,68,1.1,1.1,63,0.00,,---,0.00,VWS V14.01,2013-01-05 08:21:00,
2013-01-05 03:26:00,28.6,17.6,28.17,WNW,292,0.0,2.0,63,0.00,,---,0.00,VWS V14.01,2013-01-05 08:26:00,
2013-01-05 03:31:00,28.6,17.6,28.17,SW,225,0.0,0.0,63,0.00,,---,0.00,VWS V14.01,2013-01-05 08:31:00,
2013-01-05 03:36:00,28.6,17.6,28.17,NE,45,0.0,1.6,63,0.00,,---,0.00,VWS V14.01,2013-01-05 08:36:00,
2013-01-05 03:41:00,28.6,17.6,28.17,ESE,112,0.0,0.0,63,0.00,,---,0.00,VWS V14.01,2013-01-05 08:41:00,
2013-01-05 03:46:00,28.6,17.6,28.17,West,270,0.0,0.0,63,0.00,,---,0.00,VWS V14.01,2013-01-05 08:46:00,
2013-01-05 03:51:00,28.6,17.6,28.17,WSW,248,0.0,0.0,63,0.00,,---,0.00,VWS V14.01,2013-01-05 08:51:00,
2013-01-05 03:56:00,28.4,17.4,28.17,SE,135,0.0,0.0,63,0.00,,---,0.00,VWS V14.01,2013-01-05 08:56:00,
2013-01-05 04:01:00,28.0,17.1,28.17,SW,225,0.0,0.0,63,0.00,,---,0.00,VWS V14.01,2013-01-05 09:01:00,
2013-01-05 04:06:00,27.9,17.3,28.20,NNW,338,0.0,0.0,64,0.00,,---,0.00,VWS V14.01,2013-01-05 09:06:00,
2013-01-05 04:11:00,27.5,16.9,28.20,WNW,292,0.0,0.0,64,0.00,,---,0.00,VWS V14.01,2013-01-05 09:11:00,
2013-01-05 04:16:00,27.5,16.9,28.20,West,270,0.0,0.0,64,0.00,,---,0.00,VWS V14.01,2013-01-05 09:16:00,
2013-01-05 04:21:00,27.1,17.0,28.17,WNW,292,0.0,0.0,65,0.00,,---,0.00,VWS V14.01,2013-01-05 09:21:00,
2013-01-05 04:27:00,27.1,17.0,28.17,SSW,202,0.0,0.0,65,0.00,,---,0.00,VWS V14.01,2013-01-05 09:27:00,
2013-01-05 04:32:00,27.3,17.1,28.17,NNW,338,0.0,0.0,65,0.00,,---,0.00,VWS V14.01,2013-01-05 09:32:00,
2013-01-05 04:37:00,27.5,17.3,28.17,ENE,68,0.0,0.0,65,0.00,,---,0.00,VWS V14.01,2013-01-05 09:37:00,
2013-01-05 04:42:00,27.5,17.3,28.17,WSW,248,0.0,0.0,65,0.00,,---,0.00,VWS V14.01,2013-01-05 09:42:00,
2013-01-05 04:47:00,27.7,17.5,28.17,ESE,112,0.0,0.0,65,0.00,,---,0.00,VWS V14.01,2013-01-05 09:47:00,
2013-01-05 04:52:00,27.7,17.5,28.17,East,90,0.0,0.0,65,0.00,,---,0.00,VWS V14.01,2013-01-05 09:52:00,
2013-01-05 04:57:00,27.5,17.3,28.17,ESE,112,0.0,0.0,65,0.00,,---,0.00,VWS V14.01,2013-01-05 09:57:00,
2013-01-05 05:03:00,27.5,17.3,28.17,WNW,292,0.0,0.0,65,0.00,,---,0.00,VWS V14.01,2013-01-05 10:03:00,
2013-01-05 05:08:00,27.5,17.3,28.17,West,270,0.0,0.0,65,0.00,,---,0.00,VWS V14.01,2013-01-05 10:08:00,
2013-01-05 05:13:00,27.3,17.5,28.17,West,270,0.0,0.0,66,0.00,,---,0.00,VWS V14.01,2013-01-05 10:13:00,
2013-01-05 05:18:00,27.3,17.5,28.17,NE,45,0.0,0.0,66,0.00,,---,0.00,VWS V14.01,2013-01-05 10:18:00,
2013-01-05 05:23:00,27.3,17.5,28.17,NE,45,0.0,0.0,66,0.00,,---,0.00,VWS V14.01,2013-01-05 10:23:00,
2013-01-05 05:28:00,27.3,17.5,28.17,NW,315,0.0,0.0,66,0.00,,---,0.00,VWS V14.01,2013-01-05 10:28:00,
2013-01-05 05:33:00,27.3,17.5,28.20,ESE,112,0.0,0.0,66,0.00,,---,0.00,VWS V14.01,2013-01-05 10:33:00,
2013-01-05 05:38:00,27.3,17.5,28.20,NNW,338,0.0,0.0,66,0.00,,---,0.00,VWS V14.01,2013-01-05 10:38:00,
2013-01-05 05:43:00,27.3,17.5,28.20,SE,135,0.0,0.0,66,0.00,,---,0.00,VWS V14.01,2013-01-05 10:43:00,
2013-01-05 05:48:00,27.3,17.5,28.17,West,270,0.0,0.0,66,0.00,,---,0.00,VWS V14.01,2013-01-05 10:48:00,
2013-01-05 05:53:00,27.9,18.0,28.17,WNW,292,0.0,0.0,66,0.00,,---,0.00,VWS V14.01,2013-01-05 10:53:00,
2013-01-05 05:58:00,27.9,17.6,28.17,SSE,158,0.0,0.0,65,0.00,,---,0.00,VWS V14.01,2013-01-05 10:58:00,
2013-01-05 06:03:00,28.0,18.2,28.20,SSW,202,0.0,0.0,66,0.00,,---,0.00,VWS V14.01,2013-01-05 11:03:00,
2013-01-05 06:08:00,28.0,17.8,28.20,WNW,292,0.0,0.0,65,0.00,,---,0.00,VWS V14.01,2013-01-05 11:08:00,
2013-01-05 06:13:00,28.0,17.8,28.20,North,0,0.9,0.9,65,0.00,,---,0.00,VWS V14.01,2013-01-05 11:13:00,
2013-01-05 06:18:00,28.0,17.8,28.20,NE,45,0.0,0.0,65,0.00,,---,0.00,VWS V14.01,2013-01-05 11:18:00,
2013-01-05 06:23:00,28.0,17.8,28.20,East,90,0.0,0.0,65,0.00,,---,0.00,VWS V14.01,2013-01-05 11:23:00,
2013-01-05 06:28:00,28.0,17.8,28.20,SW,225,0.0,0.0,65,0.00,,---,0.00,VWS V14.01,2013-01-05 11:28:00,
2013-01-05 06:33:00,28.0,17.8,28.17,WSW,248,0.0,0.0,65,0.00,,---,0.00,VWS V14.01,2013-01-05 11:33:00,
2013-01-05 06:39:00,28.0,17.8,28.17,West,270,0.0,0.0,65,0.00,,---,0.00,VWS V14.01,2013-01-05 11:39:00,
2013-01-05 06:44:00,28.0,17.8,28.17,NNW,338,0.9,0.9,65,0.00,,---,0.00,VWS V14.01,2013-01-05 11:44:00,
2013-01-05 06:49:00,28.0,17.8,28.20,NNW,338,0.0,0.0,65,0.00,,---,0.00,VWS V14.01,2013-01-05 11:49:00,
2013-01-05 06:54:00,28.0,17.8,28.20,West,270,0.0,0.0,65,0.00,,---,0.00,VWS V14.01,2013-01-05 11:54:00,
2013-01-05 06:59:00,28.0,17.8,28.20,ESE,112,0.0,0.0,65,0.00,,---,0.00,VWS V14.01,2013-01-05 11:59:00,
2013-01-05 07:04:00,28.0,17.8,28.20,WSW,248,0.0,0.0,65,0.00,,---,0.00,VWS V14.01,2013-01-05 12:04:00,
2013-01-05 07:09:00,28.0,17.8,28.20,SSW,202,1.1,1.1,65,0.00,,---,0.00,VWS V14.01,2013-01-05 12:09:00,
2013-01-05 07:14:00,28.0,17.8,28.20,SE,135,0.0,0.9,65,0.00,,---,0.00,VWS V14.01,2013-01-05 12:14:00,
2013-01-05 07:19:00,28.0,17.8,28.20,North,0,0.0,0.0,65,0.00,,---,0.00,VWS V14.01,2013-01-05 12:19:00,
2013-01-05 07:24:00,28.0,17.8,28.20,West,270,0.0,0.0,65,0.00,,---,0.00,VWS V14.01,2013-01-05 12:24:00,
2013-01-05 07:29:00,28.0,17.5,28.20,West,270,0.0,0.0,64,0.00,,---,0.00,VWS V14.01,2013-01-05 12:29:00,
2013-01-05 07:34:00,28.0,17.5,28.20,WSW,248,0.0,0.0,64,0.00,,---,0.00,VWS V14.01,2013-01-05 12:34:00,
2013-01-05 07:39:00,28.0,17.5,28.20,West,270,0.0,0.0,64,0.00,,---,0.00,VWS V14.01,2013-01-05 12:39:00,
2013-01-05 07:44:00,28.0,17.5,28.20,East,90,0.0,0.0,64,0.00,,---,0.00,VWS V14.01,2013-01-05 12:44:00,
2013-01-05 07:50:00,28.0,17.5,28.20,ENE,68,1.1,1.1,64,0.00,,---,0.00,VWS V14.01,2013-01-05 12:50:00,
2013-01-05 07:55:00,28.2,17.6,28.20,NE,45,0.0,3.4,64,0.00,,---,0.00,VWS V14.01,2013-01-05 12:55:00,
2013-01-05 08:00:00,28.2,17.6,28.20,SSW,202,0.0,0.0,64,0.00,,---,0.00,VWS V14.01,2013-01-05 13:00:00,
2013-01-05 08:05:00,28.9,17.6,28.20,WSW,248,0.0,0.0,62,0.00,,---,0.00,VWS V14.01,2013-01-05 13:05:00,
2013-01-05 08:10:00,28.9,17.6,28.20,South,180,1.1,1.3,62,0.00,,---,0.00,VWS V14.01,2013-01-05 13:10:00,
2013-01-05 08:15:00,29.3,17.9,28.20,NW,315,0.0,2.0,62,0.00,,---,0.00,VWS V14.01,2013-01-05 13:15:00,
2013-01-05 08:20:00,29.5,18.1,28.20,East,90,0.0,0.0,62,0.00,,---,0.00,VWS V14.01,2013-01-05 13:20:00,
2013-01-05 08:25:00,30.0,18.2,28.20,NNW,338,0.0,2.9,61,0.00,,---,0.00,VWS V14.01,2013-01-05 13:25:00,
2013-01-05 08:30:00,30.2,18.0,28.20,West,270,0.0,1.1,60,0.00,,---,0.00,VWS V14.01,2013-01-05 13:30:00,
2013-01-05 08:35:00,30.2,18.0,28.20,WSW,248,0.0,2.5,60,0.00,,---,0.00,VWS V14.01,2013-01-05 13:35:00,
2013-01-05 08:40:00,30.2,18.0,28.20,North,0,0.0,2.0,60,0.00,,---,0.00,VWS V14.01,2013-01-05 13:40:00,
2013-01-05 08:45:00,30.2,18.0,28.20,NE,45,2.0,2.2,60,0.00,,---,0.00,VWS V14.01,2013-01-05 13:45:00,
2013-01-05 08:50:00,30.2,18.0,28.17,SE,135,0.0,2.0,60,0.00,,---,0.00,VWS V14.01,2013-01-05 13:50:00,
2013-01-05 08:55:00,30.2,18.0,28.17,SE,135,0.9,2.7,60,0.00,,---,0.00,VWS V14.01,2013-01-05 13:55:00,
2013-01-05 09:00:00,30.2,18.0,28.17,ESE,112,0.0,2.7,60,0.00,,---,0.00,VWS V14.01,2013-01-05 14:00:00,
2013-01-05 09:05:00,32.9,19.4,28.20,West,270,0.0,1.6,57,0.00,,---,0.00,VWS V14.01,2013-01-05 14:05:00,
2013-01-05 09:10:00,33.1,19.1,28.20,NW,315,0.0,2.5,56,0.00,,---,0.00,VWS V14.01,2013-01-05 14:10:00,
2013-01-05 09:15:00,33.8,19.4,28.20,SSW,202,0.0,0.9,55,0.00,,---,0.00,VWS V14.01,2013-01-05 14:15:00,
2013-01-05 09:20:00,34.0,19.5,28.20,West,270,0.0,1.1,55,0.00,,---,0.00,VWS V14.01,2013-01-05 14:20:00,
2013-01-05 09:25:00,34.7,20.2,28.20,SSW,202,0.0,0.0,55,0.00,,---,0.00,VWS V14.01,2013-01-05 14:25:00,
2013-01-05 09:30:00,35.4,20.9,28.20,SW,225,0.0,0.9,55,0.00,,---,0.00,VWS V14.01,2013-01-05 14:30:00,
2013-01-05 09:35:00,35.4,20.9,28.20,WSW,248,2.0,3.8,55,0.00,,---,0.00,VWS V14.01,2013-01-05 14:35:00,
2013-01-05 09:40:00,36.7,21.2,28.20,WNW,292,0.0,0.0,53,0.00,,---,0.00,VWS V14.01,2013-01-05 14:40:00,
2013-01-05 09:45:00,37.6,21.6,28.20,SW,225,0.9,2.2,52,0.00,,---,0.00,VWS V14.01,2013-01-05 14:45:00,
2013-01-05 09:50:00,37.6,21.6,28.20,East,90,2.2,2.2,52,0.00,,---,0.00,VWS V14.01,2013-01-05 14:50:00,
2013-01-05 09:55:00,37.8,21.3,28.20,WSW,248,1.1,1.6,51,0.00,,---,0.00,VWS V14.01,2013-01-05 14:55:00,
2013-01-05 10:00:00,37.9,21.4,28.20,SE,135,0.0,1.1,51,0.00,,---,0.00,VWS V14.01,2013-01-05 15:00:00,
2013-01-05 10:05:00,39.6,22.5,28.20,South,180,0.0,0.0,50,0.00,,---,0.00,VWS V14.01,2013-01-05 15:05:00,
2013-01-05 10:10:00,40.1,23.0,28.20,WSW,248,0.0,1.3,50,0.00,,---,0.00,VWS V14.01,2013-01-05 15:10:00,
2013-01-05 10:15:00,40.1,23.0,28.20,SE,135,0.0,0.0,50,0.00,,---,0.00,VWS V14.01,2013-01-05 15:15:00,
2013-01-05 10:20:00,39.9,22.8,28.20,ESE,112,0.0,0.0,50,0.00,,---,0.00,VWS V14.01,2013-01-05 15:20:00,
2013-01-05 10:25:00,40.3,23.1,28.20,SW,225,0.0,0.0,50,0.00,,---,0.00,VWS V14.01,2013-01-05 15:25:00,
2013-01-05 10:30:00,40.3,23.1,28.20,SE,135,0.9,1.1,50,0.00,,---,0.00,VWS V14.01,2013-01-05 15:30:00,
2013-01-05 10:35:00,41.2,23.0,28.20,East,90,1.1,1.1,48,0.00,,---,0.00,VWS V14.01,2013-01-05 15:35:00,
2013-01-05 10:40:00,41.2,22.5,28.20,NW,315,1.6,1.6,47,0.00,,---,0.00,VWS V14.01,2013-01-05 15:40:00,
2013-01-05 10:45:00,41.5,22.8,28.20,WSW,248,1.1,1.6,47,0.00,,---,0.00,VWS V14.01,2013-01-05 15:45:00,
2013-01-05 10:50:00,41.2,22.0,28.20,SSW,202,1.3,5.4,46,0.00,,---,0.00,VWS V14.01,2013-01-05 15:50:00,
2013-01-05 10:55:00,42.1,23.3,28.20,West,270,3.1,3.1,47,0.00,,---,0.00,VWS V14.01,2013-01-05 15:55:00,
2013-01-05 11:00:00,42.3,22.5,28.20,East,90,2.2,2.2,45,0.00,,---,0.00,VWS V14.01,2013-01-05 16:00:00,
2013-01-05 11:05:00,41.7,22.0,28.20,East,90,0.0,2.2,45,0.00,,---,0.00,VWS V14.01,2013-01-05 16:05:00,
2013-01-05 11:10:00,42.3,22.5,28.20,WNW,292,0.0,0.0,45,0.00,,---,0.00,VWS V14.01,2013-01-05 16:10:00,
2013-01-05 11:15:00,42.6,22.8,28.20,SSW,202,0.9,0.9,45,0.00,,---,0.00,VWS V14.01,2013-01-05 16:15:00,
2013-01-05 11:20:00,43.2,23.3,28.20,WSW,248,0.0,0.0,45,0.00,,---,0.00,VWS V14.01,2013-01-05 16:20:00,
2013-01-05 11:25:00,43.5,23.1,28.20,NW,315,0.9,1.6,44,0.00,,---,0.00,VWS V14.01,2013-01-05 16:25:00,
2013-01-05 11:31:00,43.7,23.2,28.20,East,90,0.0,2.5,44,0.00,,---,0.00,VWS V14.01,2013-01-05 16:31:00,
2013-01-05 11:36:00,43.5,22.5,28.20,ESE,112,2.5,2.9,43,0.00,,---,0.00,VWS V14.01,2013-01-05 16:36:00,
2013-01-05 11:41:00,44.1,23.0,28.20,SSE,158,0.0,1.1,43,0.00,,---,0.00,VWS V14.01,2013-01-05 16:41:00,
2013-01-05 11:46:00,43.9,22.3,28.20,SSE,158,1.1,1.6,42,0.00,,---,0.00,VWS V14.01,2013-01-05 16:46:00,
2013-01-05 11:51:00,44.4,22.8,28.20,ENE,68,3.1,4.0,42,0.00,,---,0.00,VWS V14.01,2013-01-05 16:51:00,
2013-01-05 11:56:00,45.3,23.0,28.20,SSW,202,0.0,2.7,41,0.00,,---,0.00,VWS V14.01,2013-01-05 16:56:00,
2013-01-05 12:01:00,45.7,23.4,28.20,West,270,0.0,0.0,41,0.00,,---,0.00,VWS V14.01,2013-01-05 17:01:00,
2013-01-05 12:06:00,46.4,24.0,28.17,East,90,0.0,0.9,41,0.00,,---,0.00,VWS V14.01,2013-01-05 17:06:00,
2013-01-05 12:11:00,46.9,24.5,28.17,East,90,0.9,0.9,41,0.00,,---,0.00,VWS V14.01,2013-01-05 17:11:00,
2013-01-05 12:16:00,46.8,23.7,28.17,SE,135,0.9,1.3,40,0.00,,---,0.00,VWS V14.01,2013-01-05 17:16:00,
2013-01-05 12:21:00,46.8,23.7,28.17,North,0,0.0,0.0,40,0.00,,---,0.00,VWS V14.01,2013-01-05 17:21:00,
2013-01-05 12:26:00,46.8,23.1,28.17,NE,45,1.1,1.6,39,0.00,,---,0.00,VWS V14.01,2013-01-05 17:26:00,
2013-01-05 12:31:00,47.7,24.5,28.17,WSW,248,0.0,0.9,40,0.00,,---,0.00,VWS V14.01,2013-01-05 17:31:00,
2013-01-05 12:36:00,48.4,24.6,28.17,WSW,248,1.3,1.3,39,0.00,,---,0.00,VWS V14.01,2013-01-05 17:36:00,
2013-01-05 12:41:00,48.6,24.7,28.17,East,90,1.3,1.3,39,0.00,,---,0.00,VWS V14.01,2013-01-05 17:41:00,
2013-01-05 12:46:00,48.4,24.0,28.17,SE,135,2.0,2.2,38,0.00,,---,0.00,VWS V14.01,2013-01-05 17:46:00,
2013-01-05 12:51:00,48.2,23.8,28.17,NNW,338,1.6,2.0,38,0.00,,---,0.00,VWS V14.01,2013-01-05 17:51:00,
2013-01-05 12:56:00,48.0,24.3,28.17,South,180,0.0,1.6,39,0.00,,---,0.00,VWS V14.01,2013-01-05 17:56:00,
2013-01-05 13:01:00,47.7,23.3,28.17,ENE,68,1.3,2.2,38,0.00,,---,0.00,VWS V14.01,2013-01-05 18:01:00,
2013-01-05 13:06:00,47.5,23.2,28.14,WNW,292,1.3,2.9,38,0.00,,---,0.00,VWS V14.01,2013-01-05 18:06:00,
2013-01-05 13:11:00,46.9,22.7,28.14,NE,45,1.6,2.0,38,0.00,,---,0.00,VWS V14.01,2013-01-05 18:11:00,
2013-01-05 13:16:00,47.3,23.0,28.14,South,180,2.2,2.2,38,0.00,,---,0.00,VWS V14.01,2013-01-05 18:16:00,
2013-01-05 13:21:00,47.7,23.3,28.14,East,90,1.3,1.3,38,0.00,,---,0.00,VWS V14.01,2013-01-05 18:21:00,
2013-01-05 13:26:00,47.7,23.3,28.14,SE,135,0.0,2.9,38,0.00,,---,0.00,VWS V14.01,2013-01-05 18:26:00,
2013-01-05 13:31:00,47.8,23.5,28.14,SSW,202,0.0,1.1,38,0.00,,---,0.00,VWS V14.01,2013-01-05 18:31:00,
2013-01-05 13:37:00,48.2,23.2,28.11,ESE,112,0.0,0.9,37,0.00,,---,0.00,VWS V14.01,2013-01-05 18:37:00,
2013-01-05 13:42:00,47.3,22.4,28.11,ENE,68,1.3,2.7,37,0.00,,---,0.00,VWS V14.01,2013-01-05 18:42:00,
2013-01-05 13:47:00,46.9,22.7,28.11,SSE,158,0.0,0.0,38,0.00,,---,0.00,VWS V14.01,2013-01-05 18:47:00,
2013-01-05 13:52:00,47.3,23.0,28.11,ESE,112,1.1,1.1,38,0.00,,---,0.00,VWS V14.01,2013-01-05 18:52:00,
2013-01-05 13:57:00,48.4,23.3,28.11,ESE,112,0.0,2.5,37,0.00,,---,0.00,VWS V14.01,2013-01-05 18:57:00,
2013-01-05 14:02:00,48.7,24.3,28.11,East,90,1.3,1.3,38,0.00,,---,0.00,VWS V14.01,2013-01-05 19:02:00,
2013-01-05 14:07:00,49.1,24.0,28.11,South,180,2.0,3.1,37,0.00,,---,0.00,VWS V14.01,2013-01-05 19:07:00,
2013-01-05 14:12:00,49.5,24.9,28.11,West,270,1.1,1.1,38,0.00,,---,0.00,VWS V14.01,2013-01-05 19:12:00,
2013-01-05 14:17:00,48.6,23.5,28.11,WSW,248,0.0,0.0,37,0.00,,---,0.00,VWS V14.01,2013-01-05 19:17:00,
2013-01-05 14:22:00,48.7,23.6,28.11,SW,225,0.0,0.0,37,0.00,,---,0.00,VWS V14.01,2013-01-05 19:22:00,
2013-01-05 14:27:00,49.6,24.5,28.11,West,270,1.1,1.1,37,0.00,,---,0.00,VWS V14.01,2013-01-05 19:27:00,
2013-01-05 14:32:00,50.4,25.1,28.11,East,90,0.0,0.0,37,0.00,,---,0.00,VWS V14.01,2013-01-05 19:32:00,
2013-01-05 14:37:00,49.8,24.6,28.11,SW,225,0.0,0.9,37,0.00,,---,0.00,VWS V14.01,2013-01-05 19:37:00,
2013-01-05 14:42:00,50.4,25.1,28.11,SSW,202,2.0,2.0,37,0.00,,---,0.00,VWS V14.01,2013-01-05 19:42:00,
2013-01-05 14:47:00,50.2,24.9,28.11,SE,135,1.1,2.0,37,0.00,,---,0.00,VWS V14.01,2013-01-05 19:47:00,
2013-01-05 14:52:00,49.3,24.1,28.11,SSW,202,0.0,0.9,37,0.00,,---,0.00,VWS V14.01,2013-01-05 19:52:00,
2013-01-05 14:57:00,49.3,24.1,28.11,West,270,0.0,0.0,37,0.00,,---,0.00,VWS V14.01,2013-01-05 19:57:00,
2013-01-05 15:02:00,49.1,23.3,28.08,WSW,248,0.0,0.0,36,0.00,,---,0.00,VWS V14.01,2013-01-05 20:02:00,
2013-01-05 15:07:00,48.4,23.3,28.08,SSE,158,0.0,0.9,37,0.00,,---,0.00,VWS V14.01,2013-01-05 20:07:00,
2013-01-05 15:13:00,48.2,23.2,28.08,East,90,2.0,2.0,37,0.00,,---,0.00,VWS V14.01,2013-01-05 20:13:00,
2013-01-05 15:18:00,48.0,23.0,28.11,SW,225,1.3,1.3,37,0.00,,---,0.00,VWS V14.01,2013-01-05 20:18:00,
2013-01-05 15:23:00,47.8,22.9,28.11,West,270,1.1,1.1,37,0.00,,---,0.00,VWS V14.01,2013-01-05 20:23:00,
2013-01-05 15:28:00,47.5,22.5,28.11,WSW,248,1.6,3.1,37,0.00,,---,0.00,VWS V14.01,2013-01-05 20:28:00,
2013-01-05 15:33:00,46.9,22.0,28.08,SW,225,1.3,2.0,37,0.00,,---,0.00,VWS V14.01,2013-01-05 20:33:00,
2013-01-05 15:38:00,46.6,21.7,28.08,SW,225,0.0,3.6,37,0.00,,---,0.00,VWS V14.01,2013-01-05 20:38:00,
2013-01-05 15:43:00,46.6,21.7,28.08,SSW,202,1.3,1.3,37,0.00,,---,0.00,VWS V14.01,2013-01-05 20:43:00,
2013-01-05 15:48:00,46.0,20.6,28.08,SSW,202,0.0,0.0,36,0.00,,---,0.00,VWS V14.01,2013-01-05 20:48:00,
2013-01-05 15:53:00,46.2,21.4,28.08,SSE,158,2.0,2.0,37,0.00,,---,0.00,VWS V14.01,2013-01-05 20:53:00,
2013-01-05 15:58:00,46.0,21.2,28.08,West,270,0.0,0.0,37,0.00,,---,0.00,VWS V14.01,2013-01-05 20:58:00,
2013-01-05 16:03:00,46.0,21.2,28.08,WSW,248,0.0,0.0,37,0.00,,---,0.00,VWS V14.01,2013-01-05 21:03:00,
2013-01-05 16:08:00,46.0,21.2,28.08,NW,315,0.0,0.0,37,0.00,,---,0.00,VWS V14.01,2013-01-05 21:08:00,
2013-01-05 16:13:00,45.7,20.9,28.08,SSW,202,0.0,0.9,37,0.00,,---,0.00,VWS V14.01,2013-01-05 21:13:00,
2013-01-05 16:18:00,45.7,21.5,28.11,South,180,0.0,0.0,38,0.00,,---,0.00,VWS V14.01,2013-01-05 21:18:00,
2013-01-05 16:24:00,45.3,21.2,28.11,SW,225,0.0,0.9,38,0.00,,---,0.00,VWS V14.01,2013-01-05 21:24:00,
2013-01-05 16:29:00,45.1,21.1,28.11,SW,225,0.0,0.0,38,0.00,,---,0.00,VWS V14.01,2013-01-05 21:29:00,
2013-01-05 16:34:00,44.8,20.7,28.08,SSE,158,0.0,0.0,38,0.00,,---,0.00,VWS V14.01,2013-01-05 21:34:00,
2013-01-05 16:39:00,44.6,20.6,28.08,SSW,202,0.9,0.9,38,0.00,,---,0.00,VWS V14.01,2013-01-05 21:39:00,
2013-01-05 16:44:00,44.2,20.9,28.08,SE,135,0.0,0.0,39,0.00,,---,0.00,VWS V14.01,2013-01-05 21:44:00,
2013-01-05 16:49:00,43.9,20.5,28.11,SSE,158,1.1,1.1,39,0.00,,---,0.00,VWS V14.01,2013-01-05 21:49:00,
2013-01-05 16:54:00,43.7,20.4,28.11,SSW,202,0.0,0.0,39,0.00,,---,0.00,VWS V14.01,2013-01-05 21:54:00,
2013-01-05 16:59:00,43.5,20.2,28.11,SSW,202,0.0,0.0,39,0.00,,---,0.00,VWS V14.01,2013-01-05 21:59:00,
2013-01-05 17:04:00,43.3,20.1,28.11,WSW,248,0.9,0.9,39,0.00,,---,0.00,VWS V14.01,2013-01-05 22:04:00,
2013-01-05 17:09:00,43.3,20.6,28.11,SW,225,0.0,0.0,40,0.00,,---,0.00,VWS V14.01,2013-01-05 22:09:00,
2013-01-05 17:14:00,43.0,20.3,28.11,South,180,0.0,0.0,40,0.00,,---,0.00,VWS V14.01,2013-01-05 22:14:00,
2013-01-05 17:19:00,43.0,20.3,28.11,East,90,1.3,1.3,40,0.00,,---,0.00,VWS V14.01,2013-01-05 22:19:00,
2013-01-05 17:25:00,42.8,20.2,28.11,SSE,158,0.0,0.9,40,0.00,,---,0.00,VWS V14.01,2013-01-05 22:25:00,
2013-01-05 17:30:00,42.6,20.6,28.11,SSE,158,0.0,0.0,41,0.00,,---,0.00,VWS V14.01,2013-01-05 22:30:00,
2013-01-05 17:35:00,42.4,20.4,28.11,East,90,0.0,0.9,41,0.00,,---,0.00,VWS V14.01,2013-01-05 22:35:00,
2013-01-05 17:40:00,42.3,20.3,28.11,East,90,0.0,0.0,41,0.00,,---,0.00,VWS V14.01,2013-01-05 22:40:00,
2013-01-05 17:45:00,42.3,20.3,28.11,SW,225,0.0,0.0,41,0.00,,---,0.00,VWS V14.01,2013-01-05 22:45:00,
2013-01-05 17:50:00,42.3,20.3,28.11,NE,45,0.0,0.0,41,0.00,,---,0.00,VWS V14.01,2013-01-05 22:50:00,
2013-01-05 17:55:00,42.1,20.1,28.11,ESE,112,0.0,0.0,41,0.00,,---,0.00,VWS V14.01,2013-01-05 22:55:00,
2013-01-05 18:00:00,42.1,20.1,28.11,South,180,0.0,0.0,41,0.00,,---,0.00,VWS V14.01,2013-01-05 23:00:00,
2013-01-05 18:05:00,41.9,20.5,28.11,West,270,0.0,0.0,42,0.00,,---,0.00,VWS V14.01,2013-01-05 23:05:00,
2013-01-05 18:10:00,41.7,20.3,28.11,SSE,158,0.0,0.0,42,0.00,,---,0.00,VWS V14.01,2013-01-05 23:10:00,
2013-01-05 18:15:00,41.7,20.3,28.11,SE,135,0.0,0.0,42,0.00,,---,0.00,VWS V14.01,2013-01-05 23:15:00,
2013-01-05 18:20:00,41.5,20.2,28.11,ESE,112,0.0,0.0,42,0.00,,---,0.00,VWS V14.01,2013-01-05 23:20:00,
2013-01-05 18:25:00,41.5,20.2,28.11,South,180,0.0,0.0,42,0.00,,---,0.00,VWS V14.01,2013-01-05 23:25:00,
2013-01-05 18:30:00,41.4,20.0,28.11,East,90,1.3,1.3,42,0.00,,---,0.00,VWS V14.01,2013-01-05 23:30:00,
2013-01-05 18:35:00,41.4,20.6,28.11,West,270,0.0,0.0,43,0.00,,---,0.00,VWS V14.01,2013-01-05 23:35:00,
2013-01-05 18:40:00,41.4,20.6,28.11,SSE,158,0.0,0.0,43,0.00,,---,0.00,VWS V14.01,2013-01-05 23:40:00,
2013-01-05 18:45:00,41.4,20.6,28.11,SW,225,0.0,0.0,43,0.00,,---,0.00,VWS V14.01,2013-01-05 23:45:00,
2013-01-05 18:50:00,41.4,20.6,28.11,SSW,202,0.0,0.0,43,0.00,,---,0.00,VWS V14.01,2013-01-05 23:50:00,
2013-01-05 18:56:00,41.2,20.4,28.11,WNW,292,0.0,1.3,43,0.00,,---,0.00,VWS V14.01,2013-01-05 23:56:00,
2013-01-05 19:01:00,41.2,20.9,28.11,SSW,202,0.0,2.0,44,0.00,,---,0.00,VWS V14.01,2013-01-06 00:01:00,
2013-01-05 19:06:00,41.0,21.3,28.11,SE,135,1.3,1.6,45,0.00,,---,0.00,VWS V14.01,2013-01-06 00:06:00,
2013-01-05 19:11:00,40.6,22.0,28.11,SW,225,2.2,2.7,47,0.00,,---,0.00,VWS V14.01,2013-01-06 00:11:00,
2013-01-05 19:16:00,40.3,21.7,28.11,SE,135,0.0,1.6,47,0.00,,---,0.00,VWS V14.01,2013-01-06 00:16:00,
2013-01-05 19:21:00,39.9,22.8,28.11,SSE,158,0.0,0.0,50,0.00,,---,0.00,VWS V14.01,2013-01-06 00:21:00,
2013-01-05 19:26:00,39.4,22.3,28.11,SSW,202,0.0,0.0,50,0.00,,---,0.00,VWS V14.01,2013-01-06 00:26:00,
2013-01-05 19:31:00,39.0,22.9,28.11,SSE,158,0.0,0.0,52,0.00,,---,0.00,VWS V14.01,2013-01-06 00:31:00,
2013-01-05 19:36:00,38.7,23.5,28.11,SSE,158,0.0,0.0,54,0.00,,---,0.00,VWS V14.01,2013-01-06 00:36:00,
2013-01-05 19:41:00,38.7,24.3,28.11,WSW,248,0.0,0.0,56,0.00,,---,0.00,VWS V14.01,2013-01-06 00:41:00,
2013-01-05 19:46:00,38.7,24.3,28.11,South,180,0.0,0.0,56,0.00,,---,0.00,VWS V14.01,2013-01-06 00:46:00,
2013-01-05 19:51:00,38.5,24.2,28.14,WSW,248,2.0,2.0,56,0.00,,---,0.00,VWS V14.01,2013-01-06 00:51:00,
2013-01-05 19:56:00,38.5,24.6,28.14,WSW,248,0.9,0.9,57,0.00,,---,0.00,VWS V14.01,2013-01-06 00:56:00,
2013-01-05 20:01:00,38.3,24.4,28.14,South,180,0.0,0.0,57,0.00,,---,0.00,VWS V14.01,2013-01-06 01:01:00,
2013-01-05 20:07:00,38.3,24.8,28.11,West,270,1.3,1.3,58,0.00,,---,0.00,VWS V14.01,2013-01-06 01:07:00,
2013-01-05 20:12:00,38.1,25.1,28.11,NNW,338,3.1,3.1,59,0.00,,---,0.00,VWS V14.01,2013-01-06 01:12:00,
2013-01-05 20:17:00,38.1,25.1,28.11,SSE,158,0.9,3.1,59,0.00,,---,0.00,VWS V14.01,2013-01-06 01:17:00,
2013-01-05 20:22:00,38.1,24.7,28.11,SSW,202,0.0,1.6,58,0.00,,---,0.00,VWS V14.01,2013-01-06 01:22:00,
2013-01-05 20:27:00,38.1,24.7,28.11,South,180,1.6,2.5,58,0.00,,---,0.00,VWS V14.01,2013-01-06 01:27:00,
2013-01-05 20:32:00,37.9,25.7,28.11,SSE,158,0.0,1.1,61,0.00,,---,0.00,VWS V14.01,2013-01-06 01:32:00,
2013-01-05 20:37:00,37.8,26.3,28.11,WSW,248,0.9,0.9,63,0.00,,---,0.00,VWS V14.01,2013-01-06 01:37:00,
2013-01-05 20:42:00,37.6,26.1,28.11,WSW,248,1.3,1.3,63,0.00,,---,0.00,VWS V14.01,2013-01-06 01:42:00,
2013-01-05 20:47:00,37.4,26.4,28.11,SSW,202,0.0,1.1,64,0.00,,---,0.00,VWS V14.01,2013-01-06 01:47:00,
2013-01-05 20:52:00,37.2,26.5,28.11,South,180,0.0,1.1,65,0.00,,---,0.00,VWS V14.01,2013-01-06 01:52:00,
2013-01-05 20:57:00,37.2,26.9,28.11,SW,225,0.9,0.9,66,0.00,,---,0.00,VWS V14.01,2013-01-06 01:57:00,
2013-01-05 21:02:00,37.0,27.5,28.11,WSW,248,0.0,1.3,68,0.00,,---,0.00,VWS V14.01,2013-01-06 02:02:00,
2013-01-05 21:07:00,36.9,27.7,28.11,SW,225,1.3,1.3,69,0.00,,---,0.00,VWS V14.01,2013-01-06 02:07:00,
2013-01-05 21:12:00,36.9,28.0,28.11,SW,225,0.0,1.1,70,0.00,,---,0.00,VWS V14.01,2013-01-06 02:12:00,
2013-01-05 21:17:00,36.7,27.8,28.11,WSW,248,1.3,1.3,70,0.00,,---,0.00,VWS V14.01,2013-01-06 02:17:00,
2013-01-05 21:22:00,36.7,27.8,28.11,WSW,248,0.9,0.9,70,0.00,,---,0.00,VWS V14.01,2013-01-06 02:22:00,
2013-01-05 21:27:00,36.7,28.9,28.11,ENE,68,0.0,1.3,73,0.00,,---,0.00,VWS V14.01,2013-01-06 02:27:00,
2013-01-05 21:32:00,36.5,28.7,28.11,SSE,158,1.1,1.1,73,0.00,,---,0.00,VWS V14.01,2013-01-06 02:32:00,
2013-01-05 21:37:00,36.3,28.5,28.11,SSE,158,0.0,0.0,73,0.00,,---,0.00,VWS V14.01,2013-01-06 02:37:00,
2013-01-05 21:42:00,36.5,29.0,28.11,West,270,0.0,0.0,74,0.00,,---,0.00,VWS V14.01,2013-01-06 02:42:00,
2013-01-05 21:47:00,36.5,29.0,28.11,WNW,292,0.0,0.0,74,0.00,,---,0.00,VWS V14.01,2013-01-06 02:47:00,
2013-01-05 21:52:00,36.3,29.2,28.11,SSW,202,0.0,0.9,75,0.00,,---,0.00,VWS V14.01,2013-01-06 02:52:00,
2013-01-05 21:57:00,36.3,29.5,28.11,WSW,248,0.0,0.9,76,0.00,,---,0.00,VWS V14.01,2013-01-06 02:57:00,
2013-01-05 22:02:00,36.3,29.8,28.14,WSW,248,0.0,0.0,77,0.00,,---,0.00,VWS V14.01,2013-01-06 03:02:00,
2013-01-05 22:07:00,36.3,30.1,28.14,NE,45,0.0,0.0,78,0.00,,---,0.00,VWS V14.01,2013-01-06 03:07:00,
2013-01-05 22:12:00,36.3,30.4,28.14,East,90,0.0,0.0,79,0.00,,---,0.00,VWS V14.01,2013-01-06 03:12:00,
2013-01-05 22:17:00,36.3,30.1,28.11,WSW,248,0.0,0.0,78,0.00,,---,0.00,VWS V14.01,2013-01-06 03:17:00,
2013-01-05 22:22:00,36.3,30.4,28.11,East,90,0.0,0.0,79,0.00,,---,0.00,VWS V14.01,2013-01-06 03:22:00,
2013-01-05 22:27:00,36.1,30.3,28.11,SW,225,0.0,0.0,79,0.00,,---,0.00,VWS V14.01,2013-01-06 03:27:00,
2013-01-05 22:32:00,36.1,30.6,28.11,WSW,248,0.0,0.0,80,0.00,,---,0.00,VWS V14.01,2013-01-06 03:32:00,
2013-01-05 22:37:00,36.1,30.6,28.11,NNE,22,0.0,0.0,80,0.00,,---,0.00,VWS V14.01,2013-01-06 03:37:00,
2013-01-05 22:42:00,36.1,30.6,28.11,NE,45,0.0,1.1,80,0.00,,---,0.00,VWS V14.01,2013-01-06 03:42:00,
2013-01-05 22:47:00,36.1,30.6,28.11,SW,225,0.0,0.9,80,0.00,,---,0.00,VWS V14.01,2013-01-06 03:47:00,
2013-01-05 22:52:00,36.1,30.9,28.11,NNE,22,0.0,0.0,81,0.00,,---,0.00,VWS V14.01,2013-01-06 03:52:00,
2013-01-05 22:58:00,36.0,31.0,28.11,SW,225,0.0,0.0,82,0.00,,---,0.00,VWS V14.01,2013-01-06 03:58:00,
2013-01-05 23:03:00,36.0,31.0,28.11,WSW,248,0.0,0.0,82,0.00,,---,0.00,VWS V14.01,2013-01-06 04:03:00,
2013-01-05 23:08:00,35.8,31.1,28.11,SSW,202,0.0,0.9,83,0.00,,---,0.00,VWS V14.01,2013-01-06 04:08:00,
2013-01-05 23:13:00,35.8,31.4,28.11,SSW,202,0.0,0.0,84,0.00,,---,0.00,VWS V14.01,2013-01-06 04:13:00,
2013-01-05 23:18:00,35.8,31.4,28.11,South,180,1.3,2.5,84,0.00,,---,0.00,VWS V14.01,2013-01-06 04:18:00,
2013-01-05 23:23:00,35.8,31.7,28.11,SSE,158,0.0,1.6,85,0.00,,---,0.00,VWS V14.01,2013-01-06 04:23:00,
2013-01-05 23:28:00,35.6,32.1,28.11,SE,135,0.0,0.0,87,0.00,,---,0.00,VWS V14.01,2013-01-06 04:28:00,
2013-01-05 23:33:00,35.6,32.4,28.11,WSW,248,0.0,0.0,88,0.00,,---,0.00,VWS V14.01,2013-01-06 04:33:00,
2013-01-05 23:38:00,35.6,32.1,28.11,West,270,0.0,0.0,87,0.00,,---,0.00,VWS V14.01,2013-01-06 04:38:00,
2013-01-05 23:43:00,35.6,32.1,28.11,SSW,202,0.0,0.0,87,0.00,,---,0.00,VWS V14.01,2013-01-06 04:43:00,
2013-01-05 23:48:00,35.4,31.9,28.08,SSW,202,2.0,2.0,87,0.00,,---,0.00,VWS V14.01,2013-01-06 04:48:00,
2013-01-05 23:54:00,35.4,31.9,28.08,SSE,158,0.0,0.0,87,0.00,,---,0.00,VWS V14.01,2013-01-06 04:54:00,
2013-01-05 23:59:00,35.4,32.2,28.08,SE,135,0.0,0.0,88,0.00,,---,0.00,VWS V14.01,2013-01-06 04:59:00,